map of OUN home
OUN - Airport
Location
City:  Norman, Oklahoma, United States
Name:University of Oklahoma / Max Westheimer Airport
ICAO:KOUN
IATA:OUN
FAA LID:OUN

Details
Type:Airport (Airfield)
Use:Public/Civil
Latitude:3514'44"N (35.245556)
Longitude:9728'20"W (-97.472138)
Datum:WGS 1984
Elevation:1181 ft (360 m)
Variation:3.69E (WMM2015 magnetic declination)
-0.11 annual change
Runways:2
Longest:5199 × 100 ft (1585 × 30.5 m), paved

Time
Time Zone:UTC-6 (DST-5)
Local Time:

Weather
METAR:KOUN 141235Z AUTO 35007KT 10SM CLR 04/M03 A3004 RMK AO2 T00421028
TAF:KOUN 141120Z 1412/1512 36008KT P6SM SCT150
FM150300 32008KT P6SM SCT200

Related Locations
Nearby:
Farthest:RRG: 10856 mi / 17471 km
Plaine Corail [Sir Gatan Duval Airport (Plaine Corail Airport)], Rodrigues Island, MU

Find:

   beyond  
but within

Other Information
Maps:
NOTAMs:
Links:
Sources:

  
flag of United States
flag of Oklahoma
  

Airport Diagram

Airport diagram for OUN

Airport diagram PDF

Sectional Chart

Flight Planning
at skyvector.com

Satellite Image

Google Maps Satellite view

 

Copyright © 2004-2017 Karl L. Swartz. All rights reserved.
The Great Circle Mapper name and logo are trademarks of the Great Circle Mapper.
All other trademarks mentioned herein belong to their respective owners.
Please see credits for attibutions and further copyright information.

  Follow gcmap on Facebook Follow gcmap on Twitter Follow gcmap on Google+ GCmap on LinkedIn

hCard Microformat

Geo Microformat